Time;durP1;ratioP1;P1;durP2;ratioP2;P2;SDS_P1;SDS_P2;PMS_P1;PMS_P2;Temp;Humidity;BMP_temperature;BMP_pressure;BME280_temperature;BME280_humidity;BME280_pressure;Samples;Min_cycle;Max_cycle;Signal;HPM_P1;HPM_P2
2022/03/20 00:00:46;;;;;;;;;;;;;;;2.07;55.44;102159.72;6243704;23;19919;-82
2022/03/20 00:03:11;;;;;;;;;;;;;;;2.05;55.98;102163.94;6243369;23;20332;-82
2022/03/20 00:05:39;;;;;;;;;;;;;;;2.02;55.38;102165.41;6243792;23;19922;-82
2022/03/20 00:08:08;;;;;;;;;;;;;;;2.02;55.75;102159.13;6243229;23;19923;-82
2022/03/20 00:10:34;;;;;;;;;;;;;;;1.99;55.79;102154.28;6242733;23;19915;-82
2022/03/20 00:13:00;;;;;;;;;;;;;;;1.94;55.86;102157.22;6243668;23;20344;-82
2022/03/20 00:15:27;;;;;;;;;;;;;;;1.95;54.57;102164.28;6243109;23;19919;-82
2022/03/20 00:17:53;;;;;;;;;;;;;;;1.96;54.98;102157.69;6243527;23;20363;-82
2022/03/20 00:20:19;;;;;;;;;;;;;;;1.94;55.25;102162.69;6243473;23;19912;-82
2022/03/20 00:22:44;;;;;;;;;;;;;;;1.89;55.05;102166.41;6243392;23;19923;-82
2022/03/20 00:25:10;;;;;;;;;;;;;;;1.82;54.43;102166.09;6244165;23;19978;-82
2022/03/20 00:27:35;;;;;;;;;;;;;;;1.79;54.77;102167.53;6243214;23;19922;-82
2022/03/20 00:30:01;;;;;;;;;;;;;;;1.77;54.90;102175.28;6216300;23;19920;-82
2022/03/20 00:32:26;;;;;;;;;;;;;;;1.76;55.01;102170.94;6243072;23;19915;-82
2022/03/20 00:34:56;;;;;;;;;;;;;;;1.72;55.03;102164.50;6243795;23;19915;-82
2022/03/20 00:37:22;;;;;;;;;;;;;;;1.70;55.10;102166.75;6243090;23;19916;-82
2022/03/20 00:39:48;;;;;;;;;;;;;;;1.67;54.85;102180.28;6216824;23;20348;-82
2022/03/20 00:42:13;;;;;;;;;;;;;;;1.69;53.34;102173.38;6243437;23;19959;-82
2022/03/20 00:44:39;;;;;;;;;;;;;;;1.69;54.13;102175.31;6216457;23;19912;-82
2022/03/20 00:47:04;;;;;;;;;;;;;;;1.66;54.30;102174.00;6243148;23;19916;-82
2022/03/20 00:49:30;;;;;;;;;;;;;;;1.64;54.51;102181.75;6243320;23;19919;-82
2022/03/20 00:51:56;;;;;;;;;;;;;;;1.64;53.96;102175.47;6242562;23;19998;-82
2022/03/20 00:54:21;;;;;;;;;;;;;;;1.59;53.96;102173.72;6243460;23;19919;-82
2022/03/20 00:56:46;;;;;;;;;;;;;;;1.58;54.15;102174.81;6243474;23;19919;-82
2022/03/20 00:59:12;;;;;;;;;;;;;;;1.55;54.73;102172.75;6243647;23;20247;-82
2022/03/20 01:01:37;;;;;;;;;;;;;;;1.48;54.10;102172.44;6242953;23;19916;-82
2022/03/20 01:04:03;;;;;;;;;;;;;;;1.44;54.56;102170.66;6243635;23;19943;-82
2022/03/20 01:06:28;;;;;;;;;;;;;;;1.40;54.66;102165.84;6243355;23;19915;-82
2022/03/20 01:08:53;;;;;;;;;;;;;;;1.35;55.27;102173.41;6243360;23;19919;-83
2022/03/20 01:11:19;;;;;;;;;;;;;;;1.33;54.87;102170.22;6243397;23;19963;-82
2022/03/20 01:13:44;;;;;;;;;;;;;;;1.29;55.28;102159.13;6243327;23;19934;-82
2022/03/20 01:16:10;;;;;;;;;;;;;;;1.29;54.79;102152.84;6243502;23;19915;-83
2022/03/20 01:18:35;;;;;;;;;;;;;;;1.28;54.91;102156.69;6242369;23;19974;-82
2022/03/20 01:21:00;;;;;;;;;;;;;;;1.26;54.47;102153.47;6243305;23;19915;-82
2022/03/20 01:23:26;;;;;;;;;;;;;;;1.27;54.45;102161.34;6217777;23;19916;-82
2022/03/20 01:25:52;;;;;;;;;;;;;;;1.23;54.29;102159.59;6245443;23;19993;-82
2022/03/20 01:28:18;;;;;;;;;;;;;;;1.22;53.86;102163.44;6245291;23;19947;-83
2022/03/20 01:30:44;;;;;;;;;;;;;;;1.23;53.81;102156.84;6245129;23;20543;-82
2022/03/20 01:33:09;;;;;;;;;;;;;;;1.19;54.46;102158.63;6244294;23;19947;-82
2022/03/20 01:35:35;;;;;;;;;;;;;;;1.12;54.93;102164.59;6245022;23;19916;-82
2022/03/20 01:38:01;;;;;;;;;;;;;;;1.07;55.40;102161.19;6218299;23;19922;-82
2022/03/20 01:40:26;;;;;;;;;;;;;;;1.01;55.53;102162.50;6245214;23;19958;-82
2022/03/20 01:42:52;;;;;;;;;;;;;;;0.98;54.77;102157.66;6245009;23;19926;-82
2022/03/20 01:45:21;;;;;;;;;;;;;;;0.97;54.85;102161.53;6245139;23;19952;-82
2022/03/20 01:47:49;;;;;;;;;;;;;;;0.98;54.99;102158.47;6244459;23;19919;-82
2022/03/20 01:50:19;;;;;;;;;;;;;;;0.97;55.35;102156.88;6245410;23;19974;-82
2022/03/20 01:52:45;;;;;;;;;;;;;;;0.96;54.08;102166.19;6217793;23;19974;-82
2022/03/20 01:55:11;;;;;;;;;;;;;;;0.95;54.63;102161.84;6218622;23;19915;-82
2022/03/20 01:57:39;;;;;;;;;;;;;;;0.96;55.15;102163.47;6217552;23;19995;-82
2022/03/20 02:00:07;;;;;;;;;;;;;;;0.94;54.07;102169.22;6244508;23;19919;-82
2022/03/20 02:02:37;;;;;;;;;;;;;;;0.96;53.23;102165.38;6211379;22;19919;-87
2022/03/20 02:05:05;;;;;;;;;;;;;;;0.95;54.76;102161.84;6217203;23;19947;-87
2022/03/20 02:07:34;;;;;;;;;;;;;;;0.92;54.42;102163.28;6218547;23;19918;-88
2022/03/20 02:09:59;;;;;;;;;;;;;;;0.89;54.90;102144.78;6219098;23;19916;-87
2022/03/20 02:12:24;;;;;;;;;;;;;;;0.86;54.52;102152.81;6192686;23;19977;-88
2022/03/20 02:14:50;;;;;;;;;;;;;;;0.85;54.82;102143.81;6193523;23;19911;-87
2022/03/20 02:17:15;;;;;;;;;;;;;;;0.82;54.86;102141.72;6217991;23;19998;-88
2022/03/20 02:19:41;;;;;;;;;;;;;;;0.77;54.84;102147.34;6218352;23;19926;-89
2022/03/20 02:22:07;;;;;;;;;;;;;;;0.75;55.22;102138.69;6193370;23;19969;-87
2022/03/20 02:24:40;;;;;;;;;;;;;;;0.74;54.76;102131.59;6193381;23;19911;-88
2022/03/20 02:27:05;;;;;;;;;;;;;;;0.73;55.11;102135.44;6244907;23;19987;-89
2022/03/20 02:29:31;;;;;;;;;;;;;;;0.73;55.04;102135.44;6244876;23;19912;-89
2022/03/20 02:31:58;;;;;;;;;;;;;;;0.68;55.00;102143.81;6193199;23;19990;-90
2022/03/20 02:34:25;;;;;;;;;;;;;;;0.52;55.18;102148.13;6217938;23;19915;-88
2022/03/20 02:36:50;;;;;;;;;;;;;;;0.51;56.21;102151.16;6192636;23;19916;-89
2022/03/20 02:39:16;;;;;;;;;;;;;;;0.36;58.75;102146.97;6217830;23;19962;-88
2022/03/20 02:41:41;;;;;;;;;;;;;;;0.35;58.24;102146.16;6168429;23;19938;-88
2022/03/20 02:44:06;;;;;;;;;;;;;;;0.35;58.45;102145.34;6192589;23;19922;-88
2022/03/20 02:46:32;;;;;;;;;;;;;;;0.25;58.32;102145.63;6218264;23;19919;-88
2022/03/20 02:48:58;;;;;;;;;;;;;;;0.13;58.90;102137.22;6192804;23;20354;-89
2022/03/20 02:51:23;;;;;;;;;;;;;;;0.06;58.79;102136.91;6193059;23;19947;-87
2022/03/20 02:53:49;;;;;;;;;;;;;;;0.04;58.91;102139.16;6192632;23;19920;-88
2022/03/20 02:56:14;;;;;;;;;;;;;;;-0.04;58.47;102144.22;6217783;23;20416;-88
2022/03/20 02:58:39;;;;;;;;;;;;;;;-0.13;58.77;102140.69;6217649;23;19927;-88
2022/03/20 03:01:06;;;;;;;;;;;;;;;-0.15;58.94;102148.34;6192643;23;19912;-89
2022/03/20 03:03:31;;;;;;;;;;;;;;;-0.34;59.46;102155.16;6192467;23;19997;-88
2022/03/20 03:05:58;;;;;;;;;;;;;;;-0.36;59.87;102147.28;6217564;23;19920;-89
2022/03/20 03:11:08;;;;;;;;;;;;;;;-0.37;59.96;102156.59;6196566;23;19915;-89
2022/03/20 03:13:34;;;;;;;;;;;;;;;-0.50;60.85;102163.72;6192213;23;19919;-88
2022/03/20 03:16:01;;;;;;;;;;;;;;;-0.45;61.23;102170.97;6193275;23;19916;-88
2022/03/20 03:18:27;;;;;;;;;;;;;;;-0.49;60.89;102165.34;6244141;23;19938;-88
2022/03/20 03:20:53;;;;;;;;;;;;;;;-0.56;61.03;102177.78;6244365;23;20322;-89
2022/03/20 03:23:20;;;;;;;;;;;;;;;-0.62;62.28;102168.13;6192218;23;20446;-86
2022/03/20 03:25:45;;;;;;;;;;;;;;;-0.60;61.91;102172.13;6193261;23;19915;-87
2022/03/20 03:28:12;;;;;;;;;;;;;;;-0.62;61.49;102181.75;6191851;23;19966;-87
2022/03/20 03:30:41;;;;;;;;;;;;;;;-0.67;62.29;102179.16;6217930;23;19915;-86
2022/03/20 03:33:06;;;;;;;;;;;;;;;-0.67;62.13;102179.16;6192087;23;19915;-86
2022/03/20 03:35:46;;;;;;;;;;;;;;;-0.62;62.42;102195.38;6217341;23;19922;-85
2022/03/20 03:38:12;;;;;;;;;;;;;;;-0.69;61.65;102187.66;6195243;23;19918;-87
2022/03/20 03:40:42;;;;;;;;;;;;;;;-0.77;61.40;102195.75;6217754;23;19916;-87
2022/03/20 03:43:07;;;;;;;;;;;;;;;-0.73;61.69;102192.09;6217266;23;20034;-88
2022/03/20 03:45:33;;;;;;;;;;;;;;;-0.72;61.90;102185.53;6192484;23;19935;-88
2022/03/20 03:47:58;;;;;;;;;;;;;;;-0.71;61.51;102194.50;6217556;23;19966;-88
2022/03/20 03:50:23;;;;;;;;;;;;;;;-0.85;62.06;102191.03;6167356;23;19962;-87
2022/03/20 03:52:49;;;;;;;;;;;;;;;-0.81;63.03;102194.75;6217269;23;19915;-87
2022/03/20 03:55:15;;;;;;;;;;;;;;;-0.79;62.20;102204.22;6217463;23;20427;-88
2022/03/20 03:57:44;;;;;;;;;;;;;;;-0.82;61.94;102198.59;6217359;23;20325;-86
2022/03/20 04:00:10;;;;;;;;;;;;;;;-0.91;62.16;102197.69;6167113;23;20407;-86
2022/03/20 04:02:44;;;;;;;;;;;;;;;-0.96;63.29;102193.97;6196065;23;19985;-87
2022/03/20 04:05:09;;;;;;;;;;;;;;;-0.91;63.38;102206.69;6192320;23;19962;-86
2022/03/20 04:07:35;;;;;;;;;;;;;;;-0.93;62.93;102210.84;6190909;23;19912;-87
2022/03/20 04:10:02;;;;;;;;;;;;;;;-0.95;62.33;102211.13;6167114;23;19978;-86
2022/03/20 04:12:28;;;;;;;;;;;;;;;-0.89;60.82;102209.09;6192026;23;19919;-87
2022/03/20 04:14:54;;;;;;;;;;;;;;;-0.85;60.51;102207.38;6165942;23;19946;-87
2022/03/20 04:17:19;;;;;;;;;;;;;;;-0.78;60.00;102215.94;6165820;23;19919;-87
2022/03/20 04:19:45;;;;;;;;;;;;;;;-0.70;59.45;102217.94;6243417;23;20325;-87
2022/03/20 04:22:11;;;;;;;;;;;;;;;-0.62;58.80;102220.72;6217310;23;19915;-87
2022/03/20 04:24:36;;;;;;;;;;;;;;;-0.41;55.98;102220.25;6191942;23;19920;-88
2022/03/20 04:27:02;;;;;;;;;;;;;;;-0.37;56.55;102218.50;6191870;23;19982;-88
2022/03/20 04:29:28;;;;;;;;;;;;;;;-0.38;56.51;102219.59;6217149;23;20320;-88
2022/03/20 04:31:54;;;;;;;;;;;;;;;-0.37;56.79;102219.31;6244007;23;19911;-88
2022/03/20 04:34:23;;;;;;;;;;;;;;;-0.41;57.82;102212.88;6217085;23;19973;-88
2022/03/20 04:36:48;;;;;;;;;;;;;;;-0.48;58.00;102232.38;6217258;23;19916;-88
2022/03/20 04:39:14;;;;;;;;;;;;;;;-0.54;57.86;102224.63;6191685;23;19915;-88
2022/03/20 04:41:41;;;;;;;;;;;;;;;-0.54;58.08;102227.34;6217033;23;20404;-88
2022/03/20 04:44:09;;;;;;;;;;;;;;;-0.56;58.01;102232.28;6216890;23;19912;-88
2022/03/20 04:46:35;;;;;;;;;;;;;;;-0.60;58.26;102239.47;6218035;23;19924;-87
2022/03/20 04:59:57;;;;;;;;;;;;;;;-0.64;57.59;102260.28;6246429;23;19974;-87
2022/03/20 05:02:23;;;;;;;;;;;;;;;-0.65;56.74;102261.41;6219047;23;19920;-87
2022/03/20 05:04:49;;;;;;;;;;;;;;;-0.60;57.14;102258.56;6195455;23;19916;-87
2022/03/20 05:07:15;;;;;;;;;;;;;;;-0.57;57.79;102256.03;6195053;23;19954;-86
2022/03/20 05:15:09;;;;;;;;;;;;;;;-0.32;57.86;102262.78;6198384;23;19977;-86
2022/03/20 05:17:34;;;;;;;;;;;;;;;-0.17;56.99;102270.63;6194301;23;19995;-87
2022/03/20 05:19:59;;;;;;;;;;;;;;;-0.06;56.13;102269.25;6219397;23;19916;-86
2022/03/20 05:22:25;;;;;;;;;;;;;;;0.07;55.57;102266.75;6194396;23;19916;-87
2022/03/20 05:24:51;;;;;;;;;;;;;;;0.20;55.51;102274.06;6194930;23;19949;-86
2022/03/20 05:27:16;;;;;;;;;;;;;;;0.29;55.28;102281.16;6219275;23;19934;-87
2022/03/20 05:29:42;;;;;;;;;;;;;;;0.46;52.85;102281.25;6246570;23;19958;-88
2022/03/20 05:32:07;;;;;;;;;;;;;;;0.57;53.93;102276.31;6220287;23;19919;-88
2022/03/20 05:34:33;;;;;;;;;;;;;;;0.61;52.31;102282.75;6245263;23;19962;-88
2022/03/20 05:36:59;;;;;;;;;;;;;;;0.71;51.91;102287.94;6220165;23;19966;-88
2022/03/20 05:39:24;;;;;;;;;;;;;;;0.80;52.15;102282.53;6219022;23;19912;-88
2022/03/20 05:41:53;;;;;;;;;;;;;;;0.88;51.04;102289.94;6247037;23;19919;-87
2022/03/20 05:44:20;;;;;;;;;;;;;;;0.97;51.45;102298.16;6220182;23;19915;-88
2022/03/20 05:46:46;;;;;;;;;;;;;;;1.05;50.85;102291.91;6195109;23;19978;-89
2022/03/20 05:49:15;;;;;;;;;;;;;;;1.09;50.27;102301.09;6194257;23;19919;-90
2022/03/20 05:51:40;;;;;;;;;;;;;;;1.19;50.02;102300.78;6246444;23;19926;-88
2022/03/20 05:54:06;;;;;;;;;;;;;;;1.33;49.30;102294.06;6246436;23;19912;-88
2022/03/20 05:59:16;;;;;;;;;;;;;;;1.64;49.70;102302.13;6245933;23;19941;-89
2022/03/20 06:01:41;;;;;;;;;;;;;;;1.78;48.73;102304.69;6194709;23;19916;-89
2022/03/20 06:04:08;;;;;;;;;;;;;;;1.92;48.64;102308.06;6169555;23;19916;-90
2022/03/20 06:06:35;;;;;;;;;;;;;;;2.10;48.58;102314.34;6220199;23;19943;-89
2022/03/20 06:09:01;;;;;;;;;;;;;;;2.22;47.86;102317.22;6218428;23;19916;-89
2022/03/20 06:11:26;;;;;;;;;;;;;;;2.22;49.06;102318.00;6244745;23;20395;-88
2022/03/20 06:13:53;;;;;;;;;;;;;;;2.30;49.85;102324.59;6192840;23;20296;-88
2022/03/20 06:16:20;;;;;;;;;;;;;;;2.42;49.05;102322.00;6192656;23;20249;-89
2022/03/20 06:18:45;;;;;;;;;;;;;;;2.50;48.80;102323.91;6191648;23;19958;-89
2022/03/20 06:21:11;;;;;;;;;;;;;;;2.57;48.21;102324.19;6216652;23;20292;-87
2022/03/20 06:23:37;;;;;;;;;;;;;;;2.67;47.50;102334.00;6216758;23;19919;-87
2022/03/20 06:26:03;;;;;;;;;;;;;;;2.77;47.06;102337.19;6243783;23;20306;-88
2022/03/20 06:28:29;;;;;;;;;;;;;;;2.86;46.97;102330.84;6216355;23;19939;-89
2022/03/20 06:30:54;;;;;;;;;;;;;;;2.98;47.16;102340.00;6216955;23;19915;-87
2022/03/20 06:33:20;;;;;;;;;;;;;;;3.11;47.56;102338.16;6216200;23;20047;-88
2022/03/20 06:35:46;;;;;;;;;;;;;;;3.19;47.41;102348.28;6215482;23;19924;-88
2022/03/20 06:38:12;;;;;;;;;;;;;;;3.24;47.38;102348.06;6190719;23;20050;-86
2022/03/20 06:40:37;;;;;;;;;;;;;;;3.42;47.67;102349.59;6217681;23;19950;-86
2022/03/20 06:43:03;;;;;;;;;;;;;;;3.57;47.01;102335.28;6217607;23;19950;-86
2022/03/20 06:45:28;;;;;;;;;;;;;;;3.70;46.88;102347.13;6192234;23;19958;-87
2022/03/20 06:47:54;;;;;;;;;;;;;;;3.61;45.78;102366.41;6191912;23;19962;-87
2022/03/20 06:50:19;;;;;;;;;;;;;;;3.65;46.05;102356.38;6191096;23;19958;-88
2022/03/20 06:52:45;;;;;;;;;;;;;;;3.79;46.66;102352.56;6166152;23;19994;-89
2022/03/20 06:55:16;;;;;;;;;;;;;;;3.96;45.21;102357.94;6191913;23;20284;-88
2022/03/20 06:57:42;;;;;;;;;;;;;;;4.12;44.93;102361.66;6192891;23;19912;-88
2022/03/20 07:00:08;;;;;;;;;;;;;;;4.08;44.75;102358.78;6166523;23;19926;-87
2022/03/20 07:02:43;;;;;;;;;;;;;;;4.09;44.46;102365.88;6215424;23;20425;-87
2022/03/20 07:05:08;;;;;;;;;;;;;;;4.12;44.80;102369.91;6191562;23;19947;-88
2022/03/20 07:07:34;;;;;;;;;;;;;;;4.12;44.70;102383.63;6217743;23;20289;-87
2022/03/20 07:09:59;;;;;;;;;;;;;;;4.12;43.56;102378.13;6166889;23;20315;-87
2022/03/20 07:12:25;;;;;;;;;;;;;;;4.40;43.62;102381.91;6191771;23;19920;-87
2022/03/20 07:14:50;;;;;;;;;;;;;;;4.66;43.56;102378.88;6188691;23;19978;-88
2022/03/20 07:17:16;;;;;;;;;;;;;;;4.88;42.58;102383.16;6190863;23;19915;-87
2022/03/20 07:19:43;;;;;;;;;;;;;;;4.87;43.17;102393.38;6191100;23;20242;-87
2022/03/20 07:22:09;;;;;;;;;;;;;;;4.81;43.33;102391.19;6215096;23;19942;-87
2022/03/20 07:24:34;;;;;;;;;;;;;;;4.78;42.19;102397.34;6165762;23;20305;-87
2022/03/20 07:29:44;;;;;;;;;;;;;;;5.33;41.63;102400.41;6241554;23;19915;-88
2022/03/20 07:32:09;;;;;;;;;;;;;;;5.27;40.63;102399.03;6241281;23;19974;-88
2022/03/20 07:34:36;;;;;;;;;;;;;;;5.05;40.90;102404.97;6214424;23;19916;-87
2022/03/20 07:37:01;;;;;;;;;;;;;;;4.99;41.30;102403.59;6214620;23;19915;-87
2022/03/20 07:39:27;;;;;;;;;;;;;;;4.94;40.68;102407.34;6214477;23;19916;-88
2022/03/20 07:41:53;;;;;;;;;;;;;;;4.91;40.49;102410.00;6242733;23;20245;-87
2022/03/20 07:44:23;;;;;;;;;;;;;;;5.00;41.46;102413.44;6242313;23;19915;-87
2022/03/20 07:46:49;;;;;;;;;;;;;;;5.13;42.09;102406.81;6243440;23;19919;-87
2022/03/20 07:49:14;;;;;;;;;;;;;;;5.12;40.99;102416.22;6191148;23;20284;-88
2022/03/20 07:51:42;;;;;;;;;;;;;;;4.84;40.56;102423.50;6242163;23;19946;-86
2022/03/20 07:54:07;;;;;;;;;;;;;;;4.94;40.32;102425.78;6216987;23;19912;-84
2022/03/20 07:56:35;;;;;;;;;;;;;;;4.84;40.32;102426.25;6243519;23;19985;-85
2022/03/20 07:59:04;;;;;;;;;;;;;;;5.10;40.52;102421.25;6192934;23;19980;-86
2022/03/20 08:01:30;;;;;;;;;;;;;;;5.11;40.67;102436.59;6217713;23;19928;-88
2022/03/20 08:03:56;;;;;;;;;;;;;;;5.06;40.11;102440.38;6216182;23;19978;-86
2022/03/20 08:06:21;;;;;;;;;;;;;;;4.95;39.75;102449.41;6192088;23;19970;-86
2022/03/20 08:08:47;;;;;;;;;;;;;;;4.92;40.62;102439.09;6217201;23;19919;-86
2022/03/20 08:11:12;;;;;;;;;;;;;;;5.15;40.27;102443.03;6216366;23;20384;-86
2022/03/20 08:13:38;;;;;;;;;;;;;;;5.16;39.52;102448.22;6243738;23;20289;-87
2022/03/20 08:16:04;;;;;;;;;;;;;;;5.06;39.97;102439.56;6217019;23;19916;-87
2022/03/20 08:18:29;;;;;;;;;;;;;;;5.02;39.98;102433.16;6215995;23;19919;-87
2022/03/20 08:20:55;;;;;;;;;;;;;;;5.09;39.89;102438.91;6217137;23;19947;-88
2022/03/20 08:23:20;;;;;;;;;;;;;;;5.56;39.39;102442.84;6216133;23;19962;-89
2022/03/20 08:25:47;;;;;;;;;;;;;;;5.96;39.04;102440.19;6191961;23;19922;-90
2022/03/20 08:28:12;;;;;;;;;;;;;;;6.00;38.50;102440.28;6216205;23;19919;-89
2022/03/20 08:30:40;;;;;;;;;;;;;;;6.13;38.41;102433.59;6190930;23;20285;-88
2022/03/20 08:33:05;;;;;;;;;;;;;;;6.31;38.16;102442.41;6190030;23;19915;-89
2022/03/20 08:35:31;;;;;;;;;;;;;;;6.38;37.39;102434.31;6165591;23;19922;-89
2022/03/20 08:37:56;;;;;;;;;;;;;;;6.49;37.12;102436.22;6189827;23;20268;-88
2022/03/20 08:40:22;;;;;;;;;;;;;;;6.27;38.20;102441.50;6190225;23;19922;-88
2022/03/20 08:42:49;;;;;;;;;;;;;;;6.54;36.89;102433.22;6191311;23;19947;-88
2022/03/20 08:45:15;;;;;;;;;;;;;;;6.61;36.96;102431.81;6164656;23;19915;-88
2022/03/20 08:47:40;;;;;;;;;;;;;;;6.75;37.74;102426.69;6191309;23;19915;-89
2022/03/20 08:50:06;;;;;;;;;;;;;;;6.94;35.60;102429.56;6191380;23;19984;-89
2022/03/20 08:52:32;;;;;;;;;;;;;;;6.77;35.55;102429.88;6190979;23;19916;-88
2022/03/20 08:54:57;;;;;;;;;;;;;;;6.44;35.61;102422.69;6216366;23;19923;-89
2022/03/20 08:57:25;;;;;;;;;;;;;;;6.42;36.26;102426.94;6191045;23;19923;-91
2022/03/20 08:59:54;;;;;;;;;;;;;;;6.49;35.90;102430.72;6216712;23;19919;-87
2022/03/20 09:02:20;;;;;;;;;;;;;;;6.56;35.04;102430.91;6242319;23;19998;-87
2022/03/20 09:04:45;;;;;;;;;;;;;;;6.79;35.57;102416.56;6243465;23;20329;-88
2022/03/20 09:07:10;;;;;;;;;;;;;;;7.07;35.11;102411.78;6216908;23;19946;-89
2022/03/20 09:09:36;;;;;;;;;;;;;;;7.10;34.52;102411.06;6243064;22;19927;-89
2022/03/20 09:12:01;;;;;;;;;;;;;;;7.06;34.50;102418.44;6216389;23;19924;-88
2022/03/20 09:14:27;;;;;;;;;;;;;;;6.92;33.69;102410.59;6242606;23;19915;-85
2022/03/20 09:19:37;;;;;;;;;;;;;;;7.21;34.05;102403.84;6215695;23;20376;-87
2022/03/20 09:22:06;;;;;;;;;;;;;;;7.43;33.34;102400.44;6216760;23;19969;-90
2022/03/20 09:24:31;;;;;;;;;;;;;;;7.69;32.24;102407.31;6215380;23;19915;-86
2022/03/20 09:26:57;;;;;;;;;;;;;;;7.67;32.99;102410.47;6242904;23;19919;-88
2022/03/20 09:29:23;;;;;;;;;;;;;;;7.80;32.17;102394.56;6215654;23;20295;-86
2022/03/20 09:31:50;;;;;;;;;;;;;;;7.74;32.61;102398.75;6216609;23;19915;-88
2022/03/20 09:34:15;;;;;;;;;;;;;;;7.94;30.94;102409.50;6166190;23;19915;-88
2022/03/20 09:36:41;;;;;;;;;;;;;;;7.92;31.74;102399.97;6240882;23;20252;-88
2022/03/20 09:39:07;;;;;;;;;;;;;;;7.80;31.10;102416.69;6190676;23;19918;-87
2022/03/20 09:41:33;;;;;;;;;;;;;;;7.58;31.88;102404.31;6165718;23;19935;-86
2022/03/20 09:44:02;;;;;;;;;;;;;;;7.99;32.78;102391.81;6216140;23;19951;-88
2022/03/20 09:46:28;;;;;;;;;;;;;;;8.07;30.07;102403.84;6217440;23;20067;-87
2022/03/20 09:48:53;;;;;;;;;;;;;;;8.15;30.53;102400.84;6190711;23;20319;-88
2022/03/20 09:51:19;;;;;;;;;;;;;;;8.22;30.19;102403.75;6215615;23;20326;-90
2022/03/20 09:53:44;;;;;;;;;;;;;;;8.45;30.11;102397.53;6215595;23;19923;-88
2022/03/20 09:56:12;;;;;;;;;;;;;;;8.64;31.23;102406.59;6190826;23;20004;-88
2022/03/20 09:58:37;;;;;;;;;;;;;;;8.78;29.33;102412.41;6190150;23;19915;-87
2022/03/20 10:01:02;;;;;;;;;;;;;;;8.16;30.55;102407.19;6191447;23;20238;-87
2022/03/20 10:03:28;;;;;;;;;;;;;;;7.71;31.30;102424.34;6190884;23;19955;-86
2022/03/20 10:06:02;;;;;;;;;;;;;;;7.52;31.19;102419.59;6217393;23;19989;-88
2022/03/20 10:08:28;;;;;;;;;;;;;;;7.61;32.03;102422.13;6217755;23;20253;-85
2022/03/20 10:11:10;;;;;;;;;;;;;;;7.87;31.52;102420.41;6217335;23;19916;-87
2022/03/20 10:13:36;;;;;;;;;;;;;;;8.06;30.43;102413.28;6242494;23;19981;-88
2022/03/20 10:16:03;;;;;;;;;;;;;;;8.62;30.76;102405.34;6241696;23;20333;-90
2022/03/20 10:18:29;;;;;;;;;;;;;;;9.17;31.31;102384.59;6164424;23;19924;-89
2022/03/20 10:21:00;;;;;;;;;;;;;;;9.56;28.97;102393.53;6241656;23;19938;-86
2022/03/20 10:23:33;;;;;;;;;;;;;;;9.26;28.63;102393.47;6218020;23;19915;-86
2022/03/20 10:26:17;;;;;;;;;;;;;;;9.33;29.12;102388.84;6217736;23;19923;-87
2022/03/20 10:28:43;;;;;;;;;;;;;;;9.45;28.96;102373.19;6243705;23;19915;-87
2022/03/20 10:31:10;;;;;;;;;;;;;;;9.46;29.60;102374.78;6215692;23;19942;-86
2022/03/20 10:33:38;;;;;;;;;;;;;;;9.59;29.49;102379.72;6216964;23;19915;-87
2022/03/20 10:36:23;;;;;;;;;;;;;;;9.40;27.93;102387.34;6217574;23;19970;-87
2022/03/20 10:38:49;;;;;;;;;;;;;;;9.20;29.09;102383.84;6167549;23;20326;-88
2022/03/20 10:41:18;;;;;;;;;;;;;;;9.10;29.18;102382.50;6192161;23;19919;-89
2022/03/20 10:43:45;;;;;;;;;;;;;;;9.40;29.63;102379.03;6216951;23;20239;-88
2022/03/20 10:46:16;;;;;;;;;;;;;;;9.62;28.85;102372.66;6193277;23;20254;-87
2022/03/20 10:48:42;;;;;;;;;;;;;;;9.96;28.50;102379.03;6244945;23;19922;-90
2022/03/20 10:51:08;;;;;;;;;;;;;;;10.03;28.13;102373.59;6192912;23;19923;-91
2022/03/20 10:53:34;;;;;;;;;;;;;;;9.71;27.73;102387.00;6192864;23;19974;-89
2022/03/20 10:56:08;;;;;;;;;;;;;;;9.51;28.19;102378.00;6244299;23;19973;-87
2022/03/20 10:58:38;;;;;;;;;;;;;;;9.71;28.38;102375.91;6244108;23;19915;-87
2022/03/20 11:01:05;;;;;;;;;;;;;;;10.09;28.24;102378.44;6217878;23;19915;-87
2022/03/20 11:03:33;;;;;;;;;;;;;;;10.00;28.63;102372.34;6191299;23;20041;-89
2022/03/20 11:05:59;;;;;;;;;;;;;;;10.37;29.49;102358.56;6193271;23;19915;-87
2022/03/20 11:08:26;;;;;;;;;;;;;;;10.56;27.20;102357.56;6192923;23;20322;-87
2022/03/20 11:10:52;;;;;;;;;;;;;;;10.03;27.08;102345.88;6244521;23;19970;-86
2022/03/20 11:13:17;;;;;;;;;;;;;;;9.88;27.29;102366.25;6218372;23;19923;-87
2022/03/20 11:15:43;;;;;;;;;;;;;;;9.85;27.66;102353.94;6217468;23;20387;-87
2022/03/20 11:18:09;;;;;;;;;;;;;;;9.79;27.34;102341.59;6218159;23;19916;-89
2022/03/20 11:20:34;;;;;;;;;;;;;;;10.00;27.86;102350.19;6192286;23;20241;-87
2022/03/20 11:23:01;;;;;;;;;;;;;;;10.35;26.88;102352.63;6244683;23;19923;-87
2022/03/20 11:25:30;;;;;;;;;;;;;;;10.38;27.01;102342.72;6218208;23;19990;-86
2022/03/20 11:28:01;;;;;;;;;;;;;;;10.63;26.19;102338.25;6193136;23;19982;-86
2022/03/20 11:30:28;;;;;;;;;;;;;;;10.81;25.89;102350.28;6217120;23;19915;-89
2022/03/20 11:32:56;;;;;;;;;;;;;;;10.97;26.00;102331.41;6192697;23;19911;-88
2022/03/20 11:35:27;;;;;;;;;;;;;;;11.32;25.87;102330.09;6217875;23;19986;-87
2022/03/20 11:37:54;;;;;;;;;;;;;;;11.36;24.98;102333.69;6218505;23;19946;-88
2022/03/20 11:40:25;;;;;;;;;;;;;;;11.53;24.33;102314.31;6244082;23;19911;-88
2022/03/20 11:43:10;;;;;;;;;;;;;;;11.72;24.22;102329.16;6218980;23;19982;-89
2022/03/20 11:45:37;;;;;;;;;;;;;;;11.62;24.53;102316.75;6217354;23;19994;-88
2022/03/20 11:48:12;;;;;;;;;;;;;;;11.79;25.68;102321.63;6217434;23;19947;-87
2022/03/20 11:50:42;;;;;;;;;;;;;;;11.00;24.69;102319.50;6217180;23;20356;-90
2022/03/20 11:53:09;;;;;;;;;;;;;;;10.75;25.09;102315.75;6217385;23;20277;-89
2022/03/20 11:55:41;;;;;;;;;;;;;;;10.03;25.67;102309.81;6243978;23;20234;-89
2022/03/20 11:58:10;;;;;;;;;;;;;;;9.79;26.29;102316.63;6217554;23;19986;-89
2022/03/20 12:00:39;;;;;;;;;;;;;;;9.48;26.89;102314.25;6216976;23;19911;-89
2022/03/20 12:03:11;;;;;;;;;;;;;;;9.67;27.00;102314.09;6217121;23;19915;-89
2022/03/20 12:05:36;;;;;;;;;;;;;;;9.92;27.12;102306.91;6217122;23;20356;-88
2022/03/20 12:08:02;;;;;;;;;;;;;;;9.83;26.76;102306.41;6217053;23;19912;-88
2022/03/20 12:10:45;;;;;;;;;;;;;;;9.74;26.71;102305.91;6243623;23;19923;-89
2022/03/20 12:13:21;;;;;;;;;;;;;;;10.08;27.07;102290.84;6217326;23;19974;-88
2022/03/20 12:15:47;;;;;;;;;;;;;;;10.66;26.40;102302.19;6192062;23;19961;-88
2022/03/20 12:18:12;;;;;;;;;;;;;;;10.48;25.28;102301.22;6217498;23;19943;-88
2022/03/20 12:20:47;;;;;;;;;;;;;;;10.16;26.60;102295.34;6216926;23;19916;-88
2022/03/20 12:23:43;;;;;;;;;;;;;;;10.35;24.98;102286.03;6217089;23;20261;-88
2022/03/20 12:26:30;;;;;;;;;;;;;;;10.57;25.06;102282.28;6217256;23;20007;-88
2022/03/20 12:29:15;;;;;;;;;;;;;;;10.31;24.13;102282.44;6244131;23;19958;-90
2022/03/20 12:31:53;;;;;;;;;;;;;;;10.67;25.05;102272.47;6216461;23;20356;-90
2022/03/20 12:34:19;;;;;;;;;;;;;;;10.74;24.40;102275.28;6216896;23;19919;-87
2022/03/20 12:36:45;;;;;;;;;;;;;;;10.40;24.79;102268.22;6244033;23;19919;-87
2022/03/20 12:39:11;;;;;;;;;;;;;;;10.67;24.64;102266.91;6217342;23;19915;-89
2022/03/20 12:41:36;;;;;;;;;;;;;;;11.14;24.29;102271.59;6192123;23;19919;-89
2022/03/20 12:44:03;;;;;;;;;;;;;;;11.44;24.53;102263.06;6217127;23;20334;-89
2022/03/20 12:46:28;;;;;;;;;;;;;;;11.72;23.65;102268.00;6216977;23;19961;-89
2022/03/20 12:48:54;;;;;;;;;;;;;;;11.18;22.64;102276.00;6244298;23;20253;-86
2022/03/20 12:51:32;;;;;;;;;;;;;;;10.52;23.26;102276.25;6191933;23;19920;-89
2022/03/20 12:53:59;;;;;;;;;;;;;;;10.36;23.62;102272.94;6244241;23;20261;-91
2022/03/20 12:58:50;;;;;;;;;;;;;;;10.79;23.73;102266.59;6244200;23;19995;-88
2022/03/20 13:01:15;;;;;;;;;;;;;;;10.91;23.79;102271.84;6216626;23;19907;-90
2022/03/20 13:03:42;;;;;;;;;;;;;;;10.47;22.96;102266.34;6243661;23;20053;-89
2022/03/20 13:06:08;;;;;;;;;;;;;;;10.70;23.41;102263.34;6216088;23;20369;-89
2022/03/20 13:08:37;;;;;;;;;;;;;;;10.84;22.91;102255.13;6216540;23;19915;-89
2022/03/20 13:11:48;;;;;;;;;;;;;;;10.76;22.39;102247.94;6216126;23;20249;-87